sensor_id;sensor_type;location;lat;lon;timestamp;P1;durP1;ratioP1;P2;durP2;ratioP2
13493;SDS011;6819;50.886;4.332;2023-07-20T00:02:24;7.10;;;2.67;;
13493;SDS011;6819;50.886;4.332;2023-07-20T00:04:50;10.80;;;2.70;;
13493;SDS011;6819;50.886;4.332;2023-07-20T00:07:16;7.18;;;2.50;;
13493;SDS011;6819;50.886;4.332;2023-07-20T00:09:42;4.30;;;2.58;;
13493;SDS011;6819;50.886;4.332;2023-07-20T00:12:08;5.70;;;2.53;;
13493;SDS011;6819;50.886;4.332;2023-07-20T00:14:34;6.90;;;3.08;;
13493;SDS011;6819;50.886;4.332;2023-07-20T00:17:00;7.10;;;2.83;;
13493;SDS011;6819;50.886;4.332;2023-07-20T00:19:26;6.53;;;3.08;;
13493;SDS011;6819;50.886;4.332;2023-07-20T00:21:53;5.75;;;2.75;;
13493;SDS011;6819;50.886;4.332;2023-07-20T00:24:19;10.50;;;3.05;;
13493;SDS011;6819;50.886;4.332;2023-07-20T00:26:46;6.47;;;3.08;;
13493;SDS011;6819;50.886;4.332;2023-07-20T00:29:12;10.82;;;3.42;;
13493;SDS011;6819;50.886;4.332;2023-07-20T00:31:38;5.38;;;2.97;;
13493;SDS011;6819;50.886;4.332;2023-07-20T00:34:04;9.73;;;3.35;;
13493;SDS011;6819;50.886;4.332;2023-07-20T00:36:31;7.78;;;2.90;;
13493;SDS011;6819;50.886;4.332;2023-07-20T00:38:57;9.50;;;3.08;;
13493;SDS011;6819;50.886;4.332;2023-07-20T00:41:23;6.95;;;3.10;;
13493;SDS011;6819;50.886;4.332;2023-07-20T00:43:49;8.10;;;3.08;;
13493;SDS011;6819;50.886;4.332;2023-07-20T00:46:15;4.38;;;2.70;;
13493;SDS011;6819;50.886;4.332;2023-07-20T00:48:42;6.63;;;3.42;;
13493;SDS011;6819;50.886;4.332;2023-07-20T00:51:08;6.93;;;3.00;;
13493;SDS011;6819;50.886;4.332;2023-07-20T00:53:34;5.28;;;3.00;;
13493;SDS011;6819;50.886;4.332;2023-07-20T00:56:00;7.47;;;3.30;;
13493;SDS011;6819;50.886;4.332;2023-07-20T00:58:26;9.25;;;2.75;;
13493;SDS011;6819;50.886;4.332;2023-07-20T01:00:53;8.25;;;3.25;;
13493;SDS011;6819;50.886;4.332;2023-07-20T01:03:19;10.73;;;3.47;;
13493;SDS011;6819;50.886;4.332;2023-07-20T01:05:48;8.05;;;3.78;;
13493;SDS011;6819;50.886;4.332;2023-07-20T01:08:24;6.30;;;2.78;;
13493;SDS011;6819;50.886;4.332;2023-07-20T01:10:54;9.57;;;3.08;;
13493;SDS011;6819;50.886;4.332;2023-07-20T01:13:23;8.52;;;3.35;;
13493;SDS011;6819;50.886;4.332;2023-07-20T01:15:50;9.35;;;3.47;;
13493;SDS011;6819;50.886;4.332;2023-07-20T01:18:19;6.90;;;3.38;;
13493;SDS011;6819;50.886;4.332;2023-07-20T01:20:45;8.77;;;3.30;;
13493;SDS011;6819;50.886;4.332;2023-07-20T01:35:53;10.27;;;3.33;;
13493;SDS011;6819;50.886;4.332;2023-07-20T01:38:20;12.57;;;3.85;;
13493;SDS011;6819;50.886;4.332;2023-07-20T01:40:47;8.15;;;3.33;;
13493;SDS011;6819;50.886;4.332;2023-07-20T01:43:13;12.65;;;3.80;;
13493;SDS011;6819;50.886;4.332;2023-07-20T01:45:39;9.95;;;3.40;;
13493;SDS011;6819;50.886;4.332;2023-07-20T01:48:05;7.13;;;3.28;;
13493;SDS011;6819;50.886;4.332;2023-07-20T01:50:32;14.55;;;3.55;;
13493;SDS011;6819;50.886;4.332;2023-07-20T01:52:59;7.10;;;3.22;;
13493;SDS011;6819;50.886;4.332;2023-07-20T01:55:25;8.95;;;3.33;;
13493;SDS011;6819;50.886;4.332;2023-07-20T01:57:51;8.00;;;3.33;;
13493;SDS011;6819;50.886;4.332;2023-07-20T02:00:17;8.95;;;3.47;;
13493;SDS011;6819;50.886;4.332;2023-07-20T02:02:49;9.63;;;4.53;;
13493;SDS011;6819;50.886;4.332;2023-07-20T02:05:15;10.40;;;4.10;;
13493;SDS011;6819;50.886;4.332;2023-07-20T02:07:41;13.50;;;4.22;;
13493;SDS011;6819;50.886;4.332;2023-07-20T02:10:07;13.75;;;3.92;;
13493;SDS011;6819;50.886;4.332;2023-07-20T02:12:33;10.95;;;4.07;;
13493;SDS011;6819;50.886;4.332;2023-07-20T02:15:00;7.80;;;3.88;;
13493;SDS011;6819;50.886;4.332;2023-07-20T02:17:27;13.95;;;3.97;;
13493;SDS011;6819;50.886;4.332;2023-07-20T02:19:53;10.43;;;4.72;;
13493;SDS011;6819;50.886;4.332;2023-07-20T02:22:20;12.30;;;4.05;;
13493;SDS011;6819;50.886;4.332;2023-07-20T02:24:46;10.23;;;4.03;;
13493;SDS011;6819;50.886;4.332;2023-07-20T02:27:12;18.92;;;4.70;;
13493;SDS011;6819;50.886;4.332;2023-07-20T02:29:38;11.25;;;4.32;;
13493;SDS011;6819;50.886;4.332;2023-07-20T02:32:04;9.95;;;4.30;;
13493;SDS011;6819;50.886;4.332;2023-07-20T02:34:30;9.38;;;4.97;;
13493;SDS011;6819;50.886;4.332;2023-07-20T02:36:56;10.80;;;4.90;;
13493;SDS011;6819;50.886;4.332;2023-07-20T02:39:23;14.57;;;5.22;;
13493;SDS011;6819;50.886;4.332;2023-07-20T02:41:49;12.85;;;4.70;;
13493;SDS011;6819;50.886;4.332;2023-07-20T02:44:15;9.43;;;4.90;;
13493;SDS011;6819;50.886;4.332;2023-07-20T02:46:41;11.05;;;4.97;;
13493;SDS011;6819;50.886;4.332;2023-07-20T02:49:07;12.30;;;5.03;;
13493;SDS011;6819;50.886;4.332;2023-07-20T02:51:33;7.18;;;4.53;;
13493;SDS011;6819;50.886;4.332;2023-07-20T02:53:59;7.50;;;4.90;;
13493;SDS011;6819;50.886;4.332;2023-07-20T02:56:26;15.88;;;5.18;;
13493;SDS011;6819;50.886;4.332;2023-07-20T02:58:52;12.70;;;5.55;;
13493;SDS011;6819;50.886;4.332;2023-07-20T03:01:18;14.35;;;4.97;;
13493;SDS011;6819;50.886;4.332;2023-07-20T03:03:44;9.60;;;5.00;;
13493;SDS011;6819;50.886;4.332;2023-07-20T03:06:12;9.55;;;5.18;;
13493;SDS011;6819;50.886;4.332;2023-07-20T03:08:39;16.65;;;5.32;;
13493;SDS011;6819;50.886;4.332;2023-07-20T03:11:06;11.13;;;6.05;;
13493;SDS011;6819;50.886;4.332;2023-07-20T03:13:32;11.93;;;5.60;;
13493;SDS011;6819;50.886;4.332;2023-07-20T03:15:58;8.63;;;5.22;;
13493;SDS011;6819;50.886;4.332;2023-07-20T03:18:24;16.45;;;7.03;;
13493;SDS011;6819;50.886;4.332;2023-07-20T03:20:51;9.88;;;5.78;;
13493;SDS011;6819;50.886;4.332;2023-07-20T03:23:17;13.13;;;6.63;;
13493;SDS011;6819;50.886;4.332;2023-07-20T03:25:43;11.02;;;6.30;;
13493;SDS011;6819;50.886;4.332;2023-07-20T03:28:09;18.90;;;6.55;;
13493;SDS011;6819;50.886;4.332;2023-07-20T03:30:35;10.00;;;5.90;;
13493;SDS011;6819;50.886;4.332;2023-07-20T03:33:01;14.88;;;5.78;;
13493;SDS011;6819;50.886;4.332;2023-07-20T03:35:28;10.75;;;6.47;;
13493;SDS011;6819;50.886;4.332;2023-07-20T03:37:54;10.02;;;6.22;;
13493;SDS011;6819;50.886;4.332;2023-07-20T03:40:20;13.82;;;6.53;;
13493;SDS011;6819;50.886;4.332;2023-07-20T03:42:47;13.13;;;6.80;;
13493;SDS011;6819;50.886;4.332;2023-07-20T03:45:13;16.20;;;8.30;;
13493;SDS011;6819;50.886;4.332;2023-07-20T03:47:40;15.07;;;7.38;;
13493;SDS011;6819;50.886;4.332;2023-07-20T03:50:06;14.90;;;7.25;;
13493;SDS011;6819;50.886;4.332;2023-07-20T03:52:34;16.92;;;7.25;;
13493;SDS011;6819;50.886;4.332;2023-07-20T03:55:00;15.93;;;6.97;;
13493;SDS011;6819;50.886;4.332;2023-07-20T03:57:27;16.75;;;7.68;;
13493;SDS011;6819;50.886;4.332;2023-07-20T03:59:53;16.50;;;7.68;;
13493;SDS011;6819;50.886;4.332;2023-07-20T04:02:20;18.75;;;8.07;;
13493;SDS011;6819;50.886;4.332;2023-07-20T04:04:46;13.93;;;7.65;;
13493;SDS011;6819;50.886;4.332;2023-07-20T04:07:12;19.48;;;8.13;;
13493;SDS011;6819;50.886;4.332;2023-07-20T04:09:38;16.33;;;7.30;;
13493;SDS011;6819;50.886;4.332;2023-07-20T04:12:05;21.75;;;8.15;;
13493;SDS011;6819;50.886;4.332;2023-07-20T04:14:31;17.25;;;8.18;;
13493;SDS011;6819;50.886;4.332;2023-07-20T04:16:57;18.98;;;8.48;;
13493;SDS011;6819;50.886;4.332;2023-07-20T04:19:25;15.48;;;8.35;;
13493;SDS011;6819;50.886;4.332;2023-07-20T04:21:51;18.42;;;8.13;;
13493;SDS011;6819;50.886;4.332;2023-07-20T04:24:17;16.70;;;8.05;;
13493;SDS011;6819;50.886;4.332;2023-07-20T04:26:43;21.45;;;8.65;;
13493;SDS011;6819;50.886;4.332;2023-07-20T04:29:09;17.40;;;8.20;;
13493;SDS011;6819;50.886;4.332;2023-07-20T04:31:35;17.83;;;7.90;;
13493;SDS011;6819;50.886;4.332;2023-07-20T04:34:01;17.83;;;8.23;;
13493;SDS011;6819;50.886;4.332;2023-07-20T04:36:27;17.20;;;8.27;;
13493;SDS011;6819;50.886;4.332;2023-07-20T04:38:53;19.38;;;8.50;;
13493;SDS011;6819;50.886;4.332;2023-07-20T04:41:19;21.70;;;8.68;;
13493;SDS011;6819;50.886;4.332;2023-07-20T04:43:45;17.48;;;8.95;;
13493;SDS011;6819;50.886;4.332;2023-07-20T04:46:11;15.63;;;7.68;;
13493;SDS011;6819;50.886;4.332;2023-07-20T04:48:37;16.40;;;7.72;;
13493;SDS011;6819;50.886;4.332;2023-07-20T04:51:05;24.05;;;8.65;;
13493;SDS011;6819;50.886;4.332;2023-07-20T04:53:31;20.50;;;8.30;;
13493;SDS011;6819;50.886;4.332;2023-07-20T04:55:57;18.05;;;9.10;;
13493;SDS011;6819;50.886;4.332;2023-07-20T04:58:24;18.63;;;8.55;;
13493;SDS011;6819;50.886;4.332;2023-07-20T05:00:50;16.45;;;8.43;;
13493;SDS011;6819;50.886;4.332;2023-07-20T05:03:17;12.35;;;7.85;;
13493;SDS011;6819;50.886;4.332;2023-07-20T05:05:43;17.30;;;8.95;;
13493;SDS011;6819;50.886;4.332;2023-07-20T05:08:09;19.42;;;9.00;;
13493;SDS011;6819;50.886;4.332;2023-07-20T05:10:35;15.63;;;8.40;;
13493;SDS011;6819;50.886;4.332;2023-07-20T05:13:01;21.80;;;9.82;;
13493;SDS011;6819;50.886;4.332;2023-07-20T05:15:27;25.73;;;9.52;;
13493;SDS011;6819;50.886;4.332;2023-07-20T05:17:53;23.65;;;9.52;;
13493;SDS011;6819;50.886;4.332;2023-07-20T05:20:19;20.38;;;10.32;;
13493;SDS011;6819;50.886;4.332;2023-07-20T05:22:46;17.40;;;8.93;;
13493;SDS011;6819;50.886;4.332;2023-07-20T05:25:12;15.25;;;9.27;;
13493;SDS011;6819;50.886;4.332;2023-07-20T05:27:38;15.27;;;7.88;;
13493;SDS011;6819;50.886;4.332;2023-07-20T05:30:04;17.23;;;6.50;;
13493;SDS011;6819;50.886;4.332;2023-07-20T05:32:32;12.70;;;7.88;;
13493;SDS011;6819;50.886;4.332;2023-07-20T05:34:58;11.30;;;5.47;;
13493;SDS011;6819;50.886;4.332;2023-07-20T05:37:24;14.40;;;7.72;;
13493;SDS011;6819;50.886;4.332;2023-07-20T05:39:50;15.35;;;6.10;;
13493;SDS011;6819;50.886;4.332;2023-07-20T05:42:16;17.00;;;8.57;;
13493;SDS011;6819;50.886;4.332;2023-07-20T05:44:42;13.25;;;6.53;;
13493;SDS011;6819;50.886;4.332;2023-07-20T05:47:08;11.27;;;6.38;;
13493;SDS011;6819;50.886;4.332;2023-07-20T05:49:34;18.50;;;8.57;;
13493;SDS011;6819;50.886;4.332;2023-07-20T05:52:00;19.42;;;8.23;;
13493;SDS011;6819;50.886;4.332;2023-07-20T05:54:27;17.65;;;8.02;;
13493;SDS011;6819;50.886;4.332;2023-07-20T05:56:54;15.05;;;7.78;;
13493;SDS011;6819;50.886;4.332;2023-07-20T05:59:20;15.57;;;7.85;;
13493;SDS011;6819;50.886;4.332;2023-07-20T06:01:46;15.82;;;8.30;;
13493;SDS011;6819;50.886;4.332;2023-07-20T06:04:14;18.42;;;8.43;;
13493;SDS011;6819;50.886;4.332;2023-07-20T06:06:40;19.13;;;8.32;;
13493;SDS011;6819;50.886;4.332;2023-07-20T06:09:06;16.88;;;8.95;;
13493;SDS011;6819;50.886;4.332;2023-07-20T06:11:36;16.25;;;8.63;;
13493;SDS011;6819;50.886;4.332;2023-07-20T06:14:02;16.85;;;8.52;;
13493;SDS011;6819;50.886;4.332;2023-07-20T06:16:28;18.48;;;9.23;;
13493;SDS011;6819;50.886;4.332;2023-07-20T06:18:55;19.98;;;8.95;;
13493;SDS011;6819;50.886;4.332;2023-07-20T06:21:21;22.60;;;8.82;;
13493;SDS011;6819;50.886;4.332;2023-07-20T06:23:47;14.38;;;7.63;;
13493;SDS011;6819;50.886;4.332;2023-07-20T06:26:13;15.15;;;8.00;;
13493;SDS011;6819;50.886;4.332;2023-07-20T06:28:39;10.82;;;7.20;;
13493;SDS011;6819;50.886;4.332;2023-07-20T06:31:05;14.90;;;8.95;;
13493;SDS011;6819;50.886;4.332;2023-07-20T06:33:31;14.48;;;8.23;;
13493;SDS011;6819;50.886;4.332;2023-07-20T06:35:57;15.70;;;7.80;;
13493;SDS011;6819;50.886;4.332;2023-07-20T06:38:23;16.90;;;9.07;;
13493;SDS011;6819;50.886;4.332;2023-07-20T06:40:50;12.45;;;7.55;;
13493;SDS011;6819;50.886;4.332;2023-07-20T06:43:16;17.95;;;8.23;;
13493;SDS011;6819;50.886;4.332;2023-07-20T06:45:42;15.38;;;8.30;;
13493;SDS011;6819;50.886;4.332;2023-07-20T06:48:08;14.57;;;7.80;;
13493;SDS011;6819;50.886;4.332;2023-07-20T06:50:34;11.40;;;7.97;;
13493;SDS011;6819;50.886;4.332;2023-07-20T06:53:01;14.57;;;7.93;;
13493;SDS011;6819;50.886;4.332;2023-07-20T06:55:29;13.57;;;7.35;;
13493;SDS011;6819;50.886;4.332;2023-07-20T06:57:56;11.27;;;6.78;;
13493;SDS011;6819;50.886;4.332;2023-07-20T07:00:22;14.13;;;6.53;;
13493;SDS011;6819;50.886;4.332;2023-07-20T07:02:48;10.90;;;6.53;;
13493;SDS011;6819;50.886;4.332;2023-07-20T07:05:14;10.00;;;6.90;;
13493;SDS011;6819;50.886;4.332;2023-07-20T07:07:40;13.68;;;6.47;;
13493;SDS011;6819;50.886;4.332;2023-07-20T07:10:07;10.05;;;5.25;;
13493;SDS011;6819;50.886;4.332;2023-07-20T07:12:33;8.02;;;5.13;;
13493;SDS011;6819;50.886;4.332;2023-07-20T07:15:00;11.50;;;5.43;;
13493;SDS011;6819;50.886;4.332;2023-07-20T07:17:26;8.13;;;5.03;;
13493;SDS011;6819;50.886;4.332;2023-07-20T07:19:52;9.18;;;4.55;;
13493;SDS011;6819;50.886;4.332;2023-07-20T07:22:20;6.32;;;3.83;;
13493;SDS011;6819;50.886;4.332;2023-07-20T07:24:46;6.60;;;4.40;;
13493;SDS011;6819;50.886;4.332;2023-07-20T07:27:12;6.00;;;2.78;;
13493;SDS011;6819;50.886;4.332;2023-07-20T07:29:41;7.50;;;2.13;;
13493;SDS011;6819;50.886;4.332;2023-07-20T07:32:09;4.82;;;1.80;;
13493;SDS011;6819;50.886;4.332;2023-07-20T07:34:36;4.45;;;2.03;;
13493;SDS011;6819;50.886;4.332;2023-07-20T07:37:02;5.07;;;1.63;;
13493;SDS011;6819;50.886;4.332;2023-07-20T07:39:28;2.85;;;1.58;;
13493;SDS011;6819;50.886;4.332;2023-07-20T07:41:55;2.08;;;1.23;;
13493;SDS011;6819;50.886;4.332;2023-07-20T07:44:21;3.45;;;1.50;;
13493;SDS011;6819;50.886;4.332;2023-07-20T07:46:47;4.20;;;1.55;;
13493;SDS011;6819;50.886;4.332;2023-07-20T07:49:13;3.40;;;1.65;;
13493;SDS011;6819;50.886;4.332;2023-07-20T07:51:39;4.32;;;1.60;;
13493;SDS011;6819;50.886;4.332;2023-07-20T07:54:06;1.70;;;1.27;;
13493;SDS011;6819;50.886;4.332;2023-07-20T07:56:32;1.90;;;1.25;;
13493;SDS011;6819;50.886;4.332;2023-07-20T07:58:58;4.43;;;1.55;;
13493;SDS011;6819;50.886;4.332;2023-07-20T08:01:24;5.28;;;1.92;;
13493;SDS011;6819;50.886;4.332;2023-07-20T08:03:50;4.13;;;1.70;;
13493;SDS011;6819;50.886;4.332;2023-07-20T08:06:16;3.80;;;2.30;;
13493;SDS011;6819;50.886;4.332;2023-07-20T08:08:43;4.22;;;2.20;;
13493;SDS011;6819;50.886;4.332;2023-07-20T08:11:09;4.28;;;1.98;;
13493;SDS011;6819;50.886;4.332;2023-07-20T08:13:35;2.30;;;1.60;;
13493;SDS011;6819;50.886;4.332;2023-07-20T08:16:01;2.80;;;1.50;;
13493;SDS011;6819;50.886;4.332;2023-07-20T08:18:27;2.65;;;1.70;;
13493;SDS011;6819;50.886;4.332;2023-07-20T08:20:54;2.23;;;1.43;;
13493;SDS011;6819;50.886;4.332;2023-07-20T08:23:20;2.40;;;1.80;;
13493;SDS011;6819;50.886;4.332;2023-07-20T08:25:46;2.13;;;1.60;;
13493;SDS011;6819;50.886;4.332;2023-07-20T08:28:13;3.13;;;1.70;;
13493;SDS011;6819;50.886;4.332;2023-07-20T08:30:40;2.25;;;1.73;;
13493;SDS011;6819;50.886;4.332;2023-07-20T08:33:06;2.78;;;1.48;;
13493;SDS011;6819;50.886;4.332;2023-07-20T08:35:33;3.72;;;1.55;;
13493;SDS011;6819;50.886;4.332;2023-07-20T08:37:59;3.55;;;1.80;;
13493;SDS011;6819;50.886;4.332;2023-07-20T08:40:25;2.17;;;1.45;;
13493;SDS011;6819;50.886;4.332;2023-07-20T08:42:51;2.30;;;1.38;;
13493;SDS011;6819;50.886;4.332;2023-07-20T08:45:18;2.63;;;1.60;;
13493;SDS011;6819;50.886;4.332;2023-07-20T08:47:44;5.07;;;1.73;;
13493;SDS011;6819;50.886;4.332;2023-07-20T08:50:11;2.70;;;1.45;;
13493;SDS011;6819;50.886;4.332;2023-07-20T08:52:37;2.70;;;1.50;;
13493;SDS011;6819;50.886;4.332;2023-07-20T08:55:03;2.03;;;1.45;;
13493;SDS011;6819;50.886;4.332;2023-07-20T08:57:31;4.30;;;1.95;;
13493;SDS011;6819;50.886;4.332;2023-07-20T08:59:58;2.17;;;1.67;;
13493;SDS011;6819;50.886;4.332;2023-07-20T09:02:25;2.47;;;1.60;;
13493;SDS011;6819;50.886;4.332;2023-07-20T09:04:52;2.78;;;1.77;;
13493;SDS011;6819;50.886;4.332;2023-07-20T09:07:18;3.10;;;1.80;;
13493;SDS011;6819;50.886;4.332;2023-07-20T09:09:45;3.38;;;1.75;;
13493;SDS011;6819;50.886;4.332;2023-07-20T09:12:14;2.47;;;1.52;;
13493;SDS011;6819;50.886;4.332;2023-07-20T09:14:42;2.35;;;1.35;;
13493;SDS011;6819;50.886;4.332;2023-07-20T09:17:12;3.70;;;1.60;;
13493;SDS011;6819;50.886;4.332;2023-07-20T09:19:39;3.33;;;1.30;;
13493;SDS011;6819;50.886;4.332;2023-07-20T09:22:05;2.83;;;1.60;;
13493;SDS011;6819;50.886;4.332;2023-07-20T09:24:31;2.20;;;1.73;;
13493;SDS011;6819;50.886;4.332;2023-07-20T09:26:57;2.50;;;1.40;;
13493;SDS011;6819;50.886;4.332;2023-07-20T09:29:28;2.97;;;1.33;;
13493;SDS011;6819;50.886;4.332;2023-07-20T09:32:13;1.90;;;1.33;;
13493;SDS011;6819;50.886;4.332;2023-07-20T09:34:43;1.52;;;1.42;;
13493;SDS011;6819;50.886;4.332;2023-07-20T09:37:09;1.60;;;1.30;;
13493;SDS011;6819;50.886;4.332;2023-07-20T09:39:45;1.85;;;1.25;;
13493;SDS011;6819;50.886;4.332;2023-07-20T09:42:14;3.08;;;1.35;;
13493;SDS011;6819;50.886;4.332;2023-07-20T09:44:43;3.08;;;1.30;;
13493;SDS011;6819;50.886;4.332;2023-07-20T09:47:09;2.42;;;1.30;;
13493;SDS011;6819;50.886;4.332;2023-07-20T09:49:39;2.95;;;1.45;;
13493;SDS011;6819;50.886;4.332;2023-07-20T09:52:05;2.03;;;1.38;;
13493;SDS011;6819;50.886;4.332;2023-07-20T09:54:32;2.47;;;1.45;;
13493;SDS011;6819;50.886;4.332;2023-07-20T09:56:58;5.03;;;1.77;;
13493;SDS011;6819;50.886;4.332;2023-07-20T09:59:24;1.98;;;1.15;;
13493;SDS011;6819;50.886;4.332;2023-07-20T10:01:50;2.45;;;1.30;;
13493;SDS011;6819;50.886;4.332;2023-07-20T10:04:19;1.60;;;1.38;;
13493;SDS011;6819;50.886;4.332;2023-07-20T10:06:46;2.42;;;1.50;;
13493;SDS011;6819;50.886;4.332;2023-07-20T10:09:13;3.20;;;1.30;;
13493;SDS011;6819;50.886;4.332;2023-07-20T10:11:40;3.63;;;1.65;;
13493;SDS011;6819;50.886;4.332;2023-07-20T10:14:08;2.28;;;1.38;;
13493;SDS011;6819;50.886;4.332;2023-07-20T10:16:36;2.03;;;1.35;;
13493;SDS011;6819;50.886;4.332;2023-07-20T10:19:05;2.42;;;1.73;;
13493;SDS011;6819;50.886;4.332;2023-07-20T10:21:37;2.53;;;1.23;;
13493;SDS011;6819;50.886;4.332;2023-07-20T10:24:05;1.83;;;1.20;;
13493;SDS011;6819;50.886;4.332;2023-07-20T10:26:32;1.58;;;1.40;;
13493;SDS011;6819;50.886;4.332;2023-07-20T10:28:58;2.05;;;1.40;;
13493;SDS011;6819;50.886;4.332;2023-07-20T10:31:25;1.98;;;1.20;;
13493;SDS011;6819;50.886;4.332;2023-07-20T10:33:54;1.52;;;1.27;;
13493;SDS011;6819;50.886;4.332;2023-07-20T10:36:27;1.40;;;1.30;;
13493;SDS011;6819;50.886;4.332;2023-07-20T10:38:56;4.28;;;1.40;;
13493;SDS011;6819;50.886;4.332;2023-07-20T10:41:35;7.13;;;1.60;;
13493;SDS011;6819;50.886;4.332;2023-07-20T10:44:02;2.22;;;1.65;;
13493;SDS011;6819;50.886;4.332;2023-07-20T10:49:04;2.00;;;1.30;;
13493;SDS011;6819;50.886;4.332;2023-07-20T10:51:38;2.67;;;1.50;;
13493;SDS011;6819;50.886;4.332;2023-07-20T10:54:07;1.60;;;1.30;;
13493;SDS011;6819;50.886;4.332;2023-07-20T10:56:33;2.65;;;1.30;;
13493;SDS011;6819;50.886;4.332;2023-07-20T10:58:59;1.52;;;1.23;;
13493;SDS011;6819;50.886;4.332;2023-07-20T11:01:29;3.45;;;1.50;;
13493;SDS011;6819;50.886;4.332;2023-07-20T11:03:58;5.88;;;1.48;;
13493;SDS011;6819;50.886;4.332;2023-07-20T11:09:07;2.10;;;1.40;;
13493;SDS011;6819;50.886;4.332;2023-07-20T11:11:37;1.70;;;1.40;;
13493;SDS011;6819;50.886;4.332;2023-07-20T11:14:04;1.80;;;1.40;;
13493;SDS011;6819;50.886;4.332;2023-07-20T11:16:41;1.88;;;1.48;;
13493;SDS011;6819;50.886;4.332;2023-07-20T11:19:23;5.13;;;1.38;;
13493;SDS011;6819;50.886;4.332;2023-07-20T11:21:50;2.40;;;1.50;;
13493;SDS011;6819;50.886;4.332;2023-07-20T11:24:17;2.10;;;1.38;;
13493;SDS011;6819;50.886;4.332;2023-07-20T11:26:44;4.50;;;1.48;;
13493;SDS011;6819;50.886;4.332;2023-07-20T11:29:10;2.47;;;1.75;;
13493;SDS011;6819;50.886;4.332;2023-07-20T11:31:39;3.65;;;1.30;;
13493;SDS011;6819;50.886;4.332;2023-07-20T11:34:07;2.55;;;1.52;;
13493;SDS011;6819;50.886;4.332;2023-07-20T11:36:33;3.03;;;1.80;;
13493;SDS011;6819;50.886;4.332;2023-07-20T11:38:59;2.95;;;1.60;;
13493;SDS011;6819;50.886;4.332;2023-07-20T11:41:25;3.03;;;1.83;;
13493;SDS011;6819;50.886;4.332;2023-07-20T11:43:52;3.72;;;1.63;;
13493;SDS011;6819;50.886;4.332;2023-07-20T11:46:19;3.08;;;1.80;;
13493;SDS011;6819;50.886;4.332;2023-07-20T11:48:45;2.15;;;1.60;;
13493;SDS011;6819;50.886;4.332;2023-07-20T11:51:15;3.80;;;2.00;;
13493;SDS011;6819;50.886;4.332;2023-07-20T11:53:42;3.33;;;1.83;;
13493;SDS011;6819;50.886;4.332;2023-07-20T11:56:08;4.95;;;1.95;;
13493;SDS011;6819;50.886;4.332;2023-07-20T11:58:34;3.13;;;1.83;;
13493;SDS011;6819;50.886;4.332;2023-07-20T12:01:00;2.70;;;1.65;;
13493;SDS011;6819;50.886;4.332;2023-07-20T12:03:27;4.22;;;1.90;;
13493;SDS011;6819;50.886;4.332;2023-07-20T12:05:53;3.22;;;1.83;;
13493;SDS011;6819;50.886;4.332;2023-07-20T12:08:19;3.05;;;1.85;;
13493;SDS011;6819;50.886;4.332;2023-07-20T12:10:45;3.83;;;2.00;;
13493;SDS011;6819;50.886;4.332;2023-07-20T12:13:11;5.22;;;2.03;;
13493;SDS011;6819;50.886;4.332;2023-07-20T12:15:37;4.63;;;1.90;;
13493;SDS011;6819;50.886;4.332;2023-07-20T12:18:04;3.22;;;1.92;;
13493;SDS011;6819;50.886;4.332;2023-07-20T12:20:34;2.40;;;1.85;;
13493;SDS011;6819;50.886;4.332;2023-07-20T12:23:02;3.47;;;2.10;;
13493;SDS011;6819;50.886;4.332;2023-07-20T12:25:47;2.13;;;1.92;;
13493;SDS011;6819;50.886;4.332;2023-07-20T12:28:14;8.70;;;2.25;;
13493;SDS011;6819;50.886;4.332;2023-07-20T12:30:41;9.27;;;2.10;;
13493;SDS011;6819;50.886;4.332;2023-07-20T12:33:07;2.35;;;1.90;;
13493;SDS011;6819;50.886;4.332;2023-07-20T12:35:33;3.20;;;2.10;;
13493;SDS011;6819;50.886;4.332;2023-07-20T12:37:59;3.72;;;2.00;;
13493;SDS011;6819;50.886;4.332;2023-07-20T12:40:25;3.22;;;2.00;;
13493;SDS011;6819;50.886;4.332;2023-07-20T12:42:51;2.78;;;2.00;;
13493;SDS011;6819;50.886;4.332;2023-07-20T12:45:18;4.63;;;2.08;;
13493;SDS011;6819;50.886;4.332;2023-07-20T12:47:44;2.10;;;1.85;;
13493;SDS011;6819;50.886;4.332;2023-07-20T12:50:10;6.05;;;2.00;;
13493;SDS011;6819;50.886;4.332;2023-07-20T12:52:36;10.90;;;2.10;;
13493;SDS011;6819;50.886;4.332;2023-07-20T12:55:06;3.60;;;2.00;;
13493;SDS011;6819;50.886;4.332;2023-07-20T12:57:33;2.15;;;1.70;;
13493;SDS011;6819;50.886;4.332;2023-07-20T13:00:00;4.72;;;2.00;;
13493;SDS011;6819;50.886;4.332;2023-07-20T13:02:26;4.20;;;1.92;;
13493;SDS011;6819;50.886;4.332;2023-07-20T13:04:52;7.25;;;1.83;;
13493;SDS011;6819;50.886;4.332;2023-07-20T13:07:19;2.60;;;1.90;;
13493;SDS011;6819;50.886;4.332;2023-07-20T13:09:54;3.13;;;2.00;;
13493;SDS011;6819;50.886;4.332;2023-07-20T13:12:20;3.47;;;2.13;;
13493;SDS011;6819;50.886;4.332;2023-07-20T13:14:46;5.30;;;1.98;;
13493;SDS011;6819;50.886;4.332;2023-07-20T13:17:12;3.67;;;1.73;;
13493;SDS011;6819;50.886;4.332;2023-07-20T13:19:38;3.88;;;1.80;;
13493;SDS011;6819;50.886;4.332;2023-07-20T13:22:04;3.00;;;1.67;;
13493;SDS011;6819;50.886;4.332;2023-07-20T13:24:30;3.28;;;1.70;;
13493;SDS011;6819;50.886;4.332;2023-07-20T13:26:56;3.42;;;1.80;;
13493;SDS011;6819;50.886;4.332;2023-07-20T13:29:23;2.75;;;2.15;;
13493;SDS011;6819;50.886;4.332;2023-07-20T13:31:50;4.13;;;1.98;;
13493;SDS011;6819;50.886;4.332;2023-07-20T13:34:16;3.50;;;1.92;;
13493;SDS011;6819;50.886;4.332;2023-07-20T13:36:42;2.05;;;1.80;;
13493;SDS011;6819;50.886;4.332;2023-07-20T13:39:08;2.53;;;2.08;;
13493;SDS011;6819;50.886;4.332;2023-07-20T13:41:34;4.60;;;2.20;;
13493;SDS011;6819;50.886;4.332;2023-07-20T13:44:00;2.50;;;2.30;;
13493;SDS011;6819;50.886;4.332;2023-07-20T13:46:26;3.78;;;2.42;;
13493;SDS011;6819;50.886;4.332;2023-07-20T13:48:52;2.90;;;2.38;;
13493;SDS011;6819;50.886;4.332;2023-07-20T13:51:18;4.85;;;2.70;;
13493;SDS011;6819;50.886;4.332;2023-07-20T13:53:47;3.45;;;2.47;;
13493;SDS011;6819;50.886;4.332;2023-07-20T13:56:13;5.93;;;2.80;;
13493;SDS011;6819;50.886;4.332;2023-07-20T13:58:39;2.92;;;2.47;;
13493;SDS011;6819;50.886;4.332;2023-07-20T14:01:05;4.68;;;2.75;;
13493;SDS011;6819;50.886;4.332;2023-07-20T14:03:31;3.38;;;2.83;;
13493;SDS011;6819;50.886;4.332;2023-07-20T14:05:57;3.92;;;2.42;;
13493;SDS011;6819;50.886;4.332;2023-07-20T14:08:23;3.40;;;2.60;;
13493;SDS011;6819;50.886;4.332;2023-07-20T14:10:49;4.00;;;2.30;;
13493;SDS011;6819;50.886;4.332;2023-07-20T14:13:15;4.60;;;2.67;;
13493;SDS011;6819;50.886;4.332;2023-07-20T14:15:41;3.90;;;2.80;;
13493;SDS011;6819;50.886;4.332;2023-07-20T14:18:08;3.85;;;2.33;;
13493;SDS011;6819;50.886;4.332;2023-07-20T14:20:34;3.75;;;2.20;;
13493;SDS011;6819;50.886;4.332;2023-07-20T14:23:00;9.07;;;2.22;;
13493;SDS011;6819;50.886;4.332;2023-07-20T14:25:26;4.28;;;2.40;;
13493;SDS011;6819;50.886;4.332;2023-07-20T14:27:52;2.92;;;2.00;;
13493;SDS011;6819;50.886;4.332;2023-07-20T14:30:18;3.33;;;2.00;;
13493;SDS011;6819;50.886;4.332;2023-07-20T14:32:44;1.75;;;1.55;;
13493;SDS011;6819;50.886;4.332;2023-07-20T14:35:10;2.28;;;1.70;;
13493;SDS011;6819;50.886;4.332;2023-07-20T14:37:36;3.35;;;1.65;;
13493;SDS011;6819;50.886;4.332;2023-07-20T14:40:02;2.22;;;1.80;;
13493;SDS011;6819;50.886;4.332;2023-07-20T14:42:30;2.70;;;1.52;;
13493;SDS011;6819;50.886;4.332;2023-07-20T14:44:57;2.55;;;1.52;;
13493;SDS011;6819;50.886;4.332;2023-07-20T14:47:23;4.72;;;1.90;;
13493;SDS011;6819;50.886;4.332;2023-07-20T14:49:49;1.60;;;1.50;;
13493;SDS011;6819;50.886;4.332;2023-07-20T14:52:15;3.58;;;1.83;;
13493;SDS011;6819;50.886;4.332;2023-07-20T14:54:42;1.92;;;1.60;;
13493;SDS011;6819;50.886;4.332;2023-07-20T14:57:08;3.83;;;1.48;;
13493;SDS011;6819;50.886;4.332;2023-07-20T14:59:39;2.05;;;1.50;;
13493;SDS011;6819;50.886;4.332;2023-07-20T15:02:06;2.00;;;1.52;;
13493;SDS011;6819;50.886;4.332;2023-07-20T15:04:33;4.50;;;1.77;;
13493;SDS011;6819;50.886;4.332;2023-07-20T15:06:59;2.63;;;1.70;;
13493;SDS011;6819;50.886;4.332;2023-07-20T15:09:25;3.13;;;1.70;;
13493;SDS011;6819;50.886;4.332;2023-07-20T15:11:51;4.05;;;1.40;;
13493;SDS011;6819;50.886;4.332;2023-07-20T15:14:17;2.70;;;1.88;;